Time;durP1;ratioP1;P1;durP2;ratioP2;P2;SDS_P1;SDS_P2;PMS_P1;PMS_P2;Temp;Humidity;BMP_temperature;BMP_pressure;BME280_temperature;BME280_humidity;BME280_pressure;Samples;Min_cycle;Max_cycle;Signal;HPM_P1;HPM_P2
2021/01/18 00:00:32;;;;;;;19.03;14.97;;;3.80;99.90;;;;;;4929108;29;20509;-26
2021/01/18 00:02:58;;;;;;;18.30;15.07;;;3.80;99.90;;;;;;4927756;29;20470;-26
2021/01/18 00:05:25;;;;;;;20.50;14.37;;;3.80;99.90;;;;;;4928389;29;20601;-26
2021/01/18 00:07:52;;;;;;;19.83;14.27;;;3.80;99.90;;;;;;4927486;29;20435;-26
2021/01/18 00:10:22;;;;;;;16.10;14.27;;;3.80;99.90;;;;;;4930234;29;20482;-26
2021/01/18 00:12:51;;;;;;;19.07;14.50;;;3.80;99.90;;;;;;4929141;29;20550;-26
2021/01/18 00:15:19;;;;;;;17.67;13.80;;;3.70;99.90;;;;;;4929849;29;20469;-25
2021/01/18 00:17:47;;;;;;;17.57;13.43;;;3.70;99.90;;;;;;4929355;29;21095;-26
2021/01/18 00:20:15;;;;;;;16.70;13.80;;;3.70;99.90;;;;;;4928910;29;20447;-26
2021/01/18 00:22:43;;;;;;;21.10;14.63;;;3.70;99.90;;;;;;4929347;29;21160;-26
2021/01/18 00:25:12;;;;;;;15.50;13.30;;;3.70;99.90;;;;;;4930291;29;20501;-25
2021/01/18 00:27:40;;;;;;;16.13;13.60;;;3.60;99.90;;;;;;4930100;29;20525;-25
2021/01/18 00:30:09;;;;;;;16.70;14.10;;;3.60;99.90;;;;;;4929501;29;20896;-26
2021/01/18 00:32:36;;;;;;;15.77;13.20;;;3.60;99.90;;;;;;4928946;29;20487;-25
2021/01/18 00:35:04;;;;;;;19.97;13.73;;;3.50;99.90;;;;;;4930536;29;20465;-26
2021/01/18 00:37:32;;;;;;;14.47;12.50;;;3.50;99.90;;;;;;4931617;29;20542;-26
2021/01/18 00:39:58;;;;;;;15.67;12.70;;;3.50;99.90;;;;;;4930134;29;20494;-26
2021/01/18 00:42:25;;;;;;;15.80;12.10;;;3.40;99.90;;;;;;4928912;29;20457;-26
2021/01/18 00:44:53;;;;;;;14.07;12.67;;;3.40;99.90;;;;;;4929990;29;20505;-26
2021/01/18 00:47:19;;;;;;;17.20;12.47;;;3.40;99.90;;;;;;4929893;29;21018;-27
2021/01/18 00:49:46;;;;;;;15.27;12.23;;;3.40;99.90;;;;;;4929441;29;20544;-26
2021/01/18 00:52:13;;;;;;;15.47;12.90;;;3.40;99.90;;;;;;4929199;29;20462;-25
2021/01/18 00:54:41;;;;;;;13.70;10.97;;;3.30;99.90;;;;;;4911525;29;20455;-26
2021/01/18 00:57:22;;;;;;;14.37;11.50;;;3.30;99.90;;;;;;4911632;29;20454;-26
2021/01/18 00:59:48;;;;;;;17.70;12.90;;;3.40;99.90;;;;;;4927307;29;21130;-25
2021/01/18 01:02:17;;;;;;;13.93;11.03;;;3.50;99.90;;;;;;4928959;29;20431;-25
2021/01/18 01:04:46;;;;;;;14.30;11.73;;;3.40;99.90;;;;;;4927234;29;20455;-26
2021/01/18 01:07:12;;;;;;;12.27;10.83;;;3.40;99.90;;;;;;4929545;29;20518;-25
2021/01/18 01:09:39;;;;;;;13.60;11.40;;;3.40;99.90;;;;;;4928561;29;20470;-27
2021/01/18 01:12:07;;;;;;;18.83;12.70;;;3.40;99.90;;;;;;4929573;29;20886;-26
2021/01/18 01:14:34;;;;;;;13.30;11.03;;;3.40;99.90;;;;;;4928843;29;20467;-25
2021/01/18 01:17:00;;;;;;;12.47;10.53;;;3.50;99.90;;;;;;4930191;29;20537;-26
2021/01/18 01:19:28;;;;;;;13.17;10.20;;;3.60;99.90;;;;;;4928451;29;20549;-26
2021/01/18 01:21:55;;;;;;;11.70;10.50;;;3.60;99.90;;;;;;4928271;29;20529;-26
2021/01/18 01:24:21;;;;;;;13.50;11.30;;;3.60;99.90;;;;;;4928609;29;20475;-26
2021/01/18 01:26:48;;;;;;;11.40;10.07;;;3.60;99.90;;;;;;4929175;29;20761;-26
2021/01/18 01:29:15;;;;;;;13.77;11.03;;;3.60;99.90;;;;;;4927735;29;20463;-26
2021/01/18 01:31:42;;;;;;;10.30;9.30;;;3.50;99.90;;;;;;4928482;29;20530;-25
2021/01/18 01:34:08;;;;;;;12.80;11.03;;;3.50;99.90;;;;;;4929718;29;20529;-25
2021/01/18 01:36:42;;;;;;;14.07;9.57;;;3.50;99.90;;;;;;4931745;29;20459;-25
2021/01/18 01:39:09;;;;;;;13.53;9.67;;;3.40;99.90;;;;;;4939184;29;20494;-25
2021/01/18 01:41:36;;;;;;;10.77;8.67;;;3.50;99.90;;;;;;4934127;29;20550;-25
2021/01/18 01:44:03;;;;;;;11.10;9.90;;;3.40;99.90;;;;;;4931498;29;21084;-26
2021/01/18 01:46:31;;;;;;;11.57;10.07;;;3.40;99.90;;;;;;4933711;29;20955;-26
2021/01/18 01:48:59;;;;;;;20.87;9.60;;;3.40;99.90;;;;;;4929406;29;20451;-26
2021/01/18 01:51:29;;;;;;;12.67;9.97;;;3.50;99.90;;;;;;4930533;29;20529;-26
2021/01/18 01:53:59;;;;;;;12.23;10.00;;;3.40;99.90;;;;;;4929191;29;20447;-26
2021/01/18 01:56:25;;;;;;;15.20;10.70;;;3.30;99.90;;;;;;4930307;29;20465;-26
2021/01/18 01:58:54;;;;;;;12.00;10.50;;;3.30;99.90;;;;;;4927711;29;20626;-25
2021/01/18 02:01:21;;;;;;;12.20;10.77;;;3.30;99.90;;;;;;4929110;29;20738;-25
2021/01/18 02:03:51;;;;;;;12.43;9.97;;;3.40;99.90;;;;;;4928488;29;20465;-26
2021/01/18 02:06:19;;;;;;;13.60;11.30;;;3.40;99.90;;;;;;4928766;29;20446;-26
2021/01/18 02:08:46;;;;;;;13.20;10.00;;;3.40;99.90;;;;;;4929303;29;21046;-26
2021/01/18 02:11:14;;;;;;;13.07;10.63;;;3.40;99.90;;;;;;4929134;29;20455;-26
2021/01/18 02:14:01;;;;;;;12.20;10.13;;;3.40;99.90;;;;;;4928527;29;20877;-26
2021/01/18 02:16:32;;;;;;;13.80;10.77;;;3.40;99.90;;;;;;4928634;29;20490;-26
2021/01/18 02:19:18;;;;;;;11.07;9.83;;;3.50;99.90;;;;;;4927592;29;20574;-26
2021/01/18 02:22:08;;;;;;;12.00;10.07;;;3.50;99.90;;;;;;4928673;29;20533;-26
2021/01/18 02:25:04;;;;;;;13.30;10.63;;;3.50;99.90;;;;;;4927693;29;20455;-25
2021/01/18 02:28:08;;;;;;;14.07;10.40;;;3.60;99.90;;;;;;4925124;29;20452;-26
2021/01/18 02:31:14;;;;;;;13.87;11.10;;;3.50;99.90;;;;;;4908603;29;20506;-26
2021/01/18 02:34:17;;;;;;;11.70;9.47;;;3.40;99.90;;;;;;4839949;29;20541;-25
2021/01/18 02:36:56;;;;;;;10.90;9.80;;;3.40;99.90;;;;;;4910170;29;20463;-26
2021/01/18 02:39:40;;;;;;;11.13;9.10;;;3.60;99.90;;;;;;4909413;29;20491;-26
2021/01/18 02:42:13;;;;;;;14.17;9.90;;;3.60;99.90;;;;;;4908774;29;20448;-26
2021/01/18 02:44:41;;;;;;;10.83;9.50;;;3.60;99.90;;;;;;4909432;29;20878;-26
2021/01/18 02:47:10;;;;;;;14.23;9.47;;;3.70;99.90;;;;;;4909635;29;20561;-25
2021/01/18 02:49:36;;;;;;;9.70;8.80;;;3.70;99.90;;;;;;4907740;29;20448;-26
2021/01/18 02:52:09;;;;;;;12.20;9.43;;;3.80;99.90;;;;;;4909062;29;20905;-26
2021/01/18 02:54:36;;;;;;;10.30;9.27;;;3.80;99.90;;;;;;4909576;29;20463;-26
2021/01/18 02:57:05;;;;;;;11.27;9.90;;;3.80;99.90;;;;;;4909314;29;20428;-26
2021/01/18 02:59:32;;;;;;;9.73;8.17;;;3.90;99.90;;;;;;4908738;29;20491;-25
2021/01/18 03:02:15;;;;;;;12.50;8.50;;;3.80;99.90;;;;;;4909579;29;20543;-26
2021/01/18 03:04:55;;;;;;;9.30;8.23;;;3.80;99.90;;;;;;4908211;29;20447;-26
2021/01/18 03:07:31;;;;;;;9.90;8.03;;;3.90;99.90;;;;;;4910297;29;20750;-26
2021/01/18 03:10:04;;;;;;;10.77;9.20;;;3.90;99.90;;;;;;4909099;29;20486;-26
2021/01/18 03:12:39;;;;;;;8.73;7.93;;;3.90;99.90;;;;;;4909373;29;20497;-26
2021/01/18 03:15:12;;;;;;;8.60;7.70;;;3.90;99.90;;;;;;4910894;29;20446;-26
2021/01/18 03:17:40;;;;;;;10.13;8.33;;;4.00;99.90;;;;;;4908183;29;20742;-26
2021/01/18 03:20:09;;;;;;;9.47;8.47;;;4.00;99.90;;;;;;4907409;29;20570;-26
2021/01/18 03:22:37;;;;;;;9.83;7.67;;;4.00;99.90;;;;;;4908465;29;20522;-26
2021/01/18 03:25:06;;;;;;;9.70;8.03;;;4.00;99.90;;;;;;4907623;29;20451;-26
2021/01/18 03:27:50;;;;;;;9.47;8.47;;;4.10;99.90;;;;;;4907810;29;20487;-26
2021/01/18 03:30:19;;;;;;;10.30;7.67;;;4.10;99.90;;;;;;4909477;29;20448;-26
2021/01/18 03:32:49;;;;;;;8.10;7.27;;;4.10;99.90;;;;;;4908411;29;20440;-26
2021/01/18 03:35:16;;;;;;;9.50;7.60;;;4.10;99.90;;;;;;4909374;29;20468;-26
2021/01/18 03:37:51;;;;;;;7.87;7.17;;;4.00;99.90;;;;;;4912820;29;20494;-26
2021/01/18 03:40:18;;;;;;;9.30;7.17;;;4.00;99.90;;;;;;4910436;29;20521;-26
2021/01/18 03:42:44;;;;;;;7.60;6.80;;;3.90;99.90;;;;;;4910540;29;20463;-26
2021/01/18 03:45:12;;;;;;;8.93;7.57;;;3.90;99.90;;;;;;4912272;29;20842;-26
2021/01/18 03:47:38;;;;;;;7.60;6.73;;;4.00;99.90;;;;;;4910887;29;20949;-26
2021/01/18 03:50:06;;;;;;;10.00;7.57;;;3.90;99.90;;;;;;4911071;29;20603;-26
2021/01/18 03:52:33;;;;;;;8.93;8.03;;;4.00;99.90;;;;;;4911542;29;21221;-26
2021/01/18 03:55:00;;;;;;;8.57;7.50;;;4.00;99.90;;;;;;4910608;29;20464;-26
2021/01/18 03:57:27;;;;;;;8.73;7.83;;;4.00;99.90;;;;;;4910642;29;20452;-26
2021/01/18 03:59:54;;;;;;;10.43;8.13;;;4.00;99.90;;;;;;4911205;29;20468;-27
2021/01/18 04:02:20;;;;;;;9.90;7.90;;;4.00;99.90;;;;;;4909983;29;20450;-26
2021/01/18 04:04:47;;;;;;;8.73;7.80;;;4.00;99.90;;;;;;4911816;29;20615;-26
2021/01/18 04:07:14;;;;;;;9.37;7.87;;;4.00;99.90;;;;;;4910229;29;20465;-26
2021/01/18 04:09:41;;;;;;;9.40;7.13;;;3.90;99.90;;;;;;4909567;29;20452;-26
2021/01/18 04:12:09;;;;;;;12.73;8.67;;;3.90;99.90;;;;;;4911047;29;20468;-26
2021/01/18 04:14:35;;;;;;;8.77;7.30;;;3.80;99.90;;;;;;4911533;29;20472;-26
2021/01/18 04:17:02;;;;;;;9.40;8.10;;;3.80;99.90;;;;;;4910202;29;20542;-26
2021/01/18 04:19:29;;;;;;;11.07;8.50;;;3.70;99.90;;;;;;4910335;29;20563;-26
2021/01/18 04:21:56;;;;;;;10.33;8.70;;;3.70;99.90;;;;;;4909674;29;20503;-26
2021/01/18 04:24:22;;;;;;;14.07;9.53;;;3.60;99.90;;;;;;4909946;29;20448;-26
2021/01/18 04:26:49;;;;;;;10.77;8.20;;;3.60;99.90;;;;;;4909669;29;20514;-26
2021/01/18 04:29:17;;;;;;;10.20;9.10;;;3.60;99.90;;;;;;4908052;29;20526;-26
2021/01/18 04:31:44;;;;;;;11.10;9.27;;;3.50;99.90;;;;;;4912753;29;20460;-25
2021/01/18 04:34:11;;;;;;;12.77;8.33;;;3.50;99.90;;;;;;4910165;29;20456;-25
2021/01/18 04:36:39;;;;;;;9.67;7.90;;;3.40;99.90;;;;;;4910636;29;20464;-25
2021/01/18 04:39:07;;;;;;;12.17;9.30;;;3.50;99.90;;;;;;4909632;29;20808;-26
2021/01/18 04:41:36;;;;;;;9.40;8.27;;;3.50;99.90;;;;;;4909384;29;20539;-26
2021/01/18 04:44:06;;;;;;;11.30;8.30;;;3.40;99.90;;;;;;4908284;29;20455;-25
2021/01/18 04:46:38;;;;;;;13.20;9.23;;;3.40;99.90;;;;;;4909330;29;20450;-26
2021/01/18 04:49:05;;;;;;;10.03;8.10;;;3.30;99.90;;;;;;4908135;29;21067;-25
2021/01/18 04:51:40;;;;;;;10.77;9.67;;;3.30;99.90;;;;;;4891709;29;20471;-25
2021/01/18 04:54:12;;;;;;;12.30;8.93;;;3.20;99.90;;;;;;4909277;29;20455;-26
2021/01/18 04:57:06;;;;;;;11.80;9.60;;;3.20;99.90;;;;;;4907539;29;20832;-25
2021/01/18 04:59:45;;;;;;;10.87;9.17;;;3.20;99.90;;;;;;4905126;29;20488;-26
2021/01/18 05:02:16;;;;;;;11.13;8.57;;;3.30;99.90;;;;;;4906274;29;20447;-25
2021/01/18 05:04:45;;;;;;;13.37;9.60;;;3.30;99.90;;;;;;4906915;29;20464;-25
2021/01/18 05:07:40;;;;;;;14.07;9.40;;;3.30;99.90;;;;;;4908499;29;20506;-25
2021/01/18 05:10:08;;;;;;;9.50;8.43;;;3.30;99.90;;;;;;4906475;29;20522;-26
2021/01/18 05:12:37;;;;;;;10.23;9.03;;;3.30;99.90;;;;;;4906143;29;20483;-25
2021/01/18 05:15:05;;;;;;;9.23;8.33;;;3.30;99.90;;;;;;4907382;29;20533;-25
2021/01/18 05:21:09;;;;;;;10.90;8.50;;;3.30;99.90;;;;;;4906061;29;21163;-26
2021/01/18 05:23:39;;;;;;;9.80;8.70;;;3.30;99.90;;;;;;4907275;29;20455;-25
2021/01/18 05:26:17;;;;;;;9.97;8.97;;;3.30;99.90;;;;;;4907205;29;20452;-26
2021/01/18 05:28:44;;;;;;;17.00;11.50;;;3.40;99.90;;;;;;4904384;29;20959;-26
2021/01/18 05:31:30;;;;;;;13.60;10.30;;;3.40;99.90;;;;;;4905063;29;20447;-26
2021/01/18 05:33:59;;;;;;;13.40;11.00;;;3.40;99.90;;;;;;4904163;29;20554;-26
2021/01/18 05:36:40;;;;;;;10.60;8.90;;;3.50;99.90;;;;;;4904343;29;20440;-26
2021/01/18 05:39:12;;;;;;;10.07;9.03;;;3.50;99.90;;;;;;4903750;29;20491;-26
2021/01/18 05:41:39;;;;;;;13.07;10.07;;;3.50;99.90;;;;;;4903565;29;20636;-26
2021/01/18 05:44:07;;;;;;;8.63;7.83;;;3.50;99.90;;;;;;4905488;29;20451;-25
2021/01/18 05:46:35;;;;;;;10.33;9.00;;;3.40;99.90;;;;;;4910549;29;20444;-26
2021/01/18 05:49:13;;;;;;;17.53;13.57;;;3.40;99.90;;;;;;4907823;29;20511;-26
2021/01/18 05:51:41;;;;;;;13.13;10.47;;;3.40;99.90;;;;;;4908453;29;20873;-26
2021/01/18 05:54:11;;;;;;;13.30;11.17;;;3.40;99.90;;;;;;4907338;29;20476;-25
2021/01/18 05:56:43;;;;;;;10.60;9.50;;;3.40;99.90;;;;;;4906065;29;20454;-25
2021/01/18 05:59:18;;;;;;;10.40;8.77;;;3.40;99.90;;;;;;4905873;29;20480;-26
2021/01/18 06:01:45;;;;;;;14.33;10.50;;;3.40;99.90;;;;;;4901697;29;21261;-26
2021/01/18 06:04:15;;;;;;;14.53;11.73;;;3.30;99.90;;;;;;4903429;29;20867;-26
2021/01/18 06:06:43;;;;;;;12.40;10.00;;;3.30;99.90;;;;;;4904115;29;20466;-26
2021/01/18 06:09:10;;;;;;;17.30;10.30;;;3.30;99.90;;;;;;4901918;29;20447;-26
2021/01/18 06:11:36;;;;;;;13.97;11.87;;;3.30;99.90;;;;;;4902773;29;20451;-26
2021/01/18 06:14:05;;;;;;;15.10;11.73;;;3.40;99.90;;;;;;4895728;29;21015;-26
2021/01/18 06:16:32;;;;;;;16.47;13.57;;;3.40;99.90;;;;;;4902616;29;20452;-26
2021/01/18 06:19:01;;;;;;;16.30;11.00;;;3.40;99.90;;;;;;4901876;29;20571;-25
2021/01/18 06:21:36;;;;;;;16.53;12.20;;;3.50;99.90;;;;;;4903886;29;20795;-25
2021/01/18 06:24:20;;;;;;;19.63;14.90;;;3.40;99.90;;;;;;4906949;29;20530;-26
2021/01/18 06:26:47;;;;;;;16.70;13.03;;;3.40;99.90;;;;;;4906948;29;21119;-26
2021/01/18 06:29:37;;;;;;;14.60;11.83;;;3.40;99.90;;;;;;4902824;29;20484;-25
2021/01/18 06:32:08;;;;;;;14.40;12.13;;;3.40;99.90;;;;;;4904066;29;20448;-25
2021/01/18 06:34:35;;;;;;;13.07;10.30;;;3.40;99.90;;;;;;4899777;29;20440;-26
2021/01/18 06:37:03;;;;;;;16.37;11.60;;;3.50;99.90;;;;;;4897945;29;20476;-25
2021/01/18 06:39:31;;;;;;;15.50;12.30;;;3.40;99.90;;;;;;4898436;29;20498;-25
2021/01/18 06:42:01;;;;;;;16.53;11.60;;;3.40;99.90;;;;;;4897890;29;20567;-26
2021/01/18 06:44:36;;;;;;;16.57;11.87;;;3.40;99.90;;;;;;4900573;29;20445;-26
2021/01/18 06:47:31;;;;;;;12.10;9.60;;;3.40;99.90;;;;;;4883636;29;20542;-25
2021/01/18 06:50:00;;;;;;;14.50;10.93;;;3.40;99.90;;;;;;4912667;29;20509;-25
2021/01/18 06:52:31;;;;;;;16.97;12.47;;;3.40;99.90;;;;;;4914445;29;20549;-26
2021/01/18 06:55:05;;;;;;;17.23;13.07;;;3.40;99.90;;;;;;4898168;29;20465;-25
2021/01/18 06:58:04;;;;;;;44.80;23.47;;;3.40;99.90;;;;;;4912020;29;20450;-25
2021/01/18 07:00:40;;;;;;;17.33;12.20;;;3.40;99.90;;;;;;4899619;29;20498;-26
2021/01/18 07:03:30;;;;;;;27.07;23.40;;;3.40;99.90;;;;;;4922878;29;20509;-26
2021/01/18 07:06:12;;;;;;;16.23;12.90;;;3.40;99.90;;;;;;4929477;29;20544;-26
2021/01/18 07:08:42;;;;;;;24.53;20.03;;;3.30;99.90;;;;;;4926866;29;20445;-26
2021/01/18 07:11:10;;;;;;;18.50;14.87;;;3.40;99.90;;;;;;4928869;28;21066;-25
2021/01/18 07:13:37;;;;;;;21.20;17.50;;;3.50;99.90;;;;;;4930349;29;20516;-26
2021/01/18 07:16:11;;;;;;;16.10;12.20;;;3.60;99.90;;;;;;4928866;29;20454;-26
2021/01/18 07:18:50;;;;;;;15.30;10.73;;;3.60;99.90;;;;;;4928576;29;20475;-26
2021/01/18 07:21:19;;;;;;;16.90;10.90;;;3.60;99.90;;;;;;4926364;29;20449;-25
2021/01/18 07:23:54;;;;;;;15.60;11.00;;;3.60;99.90;;;;;;4926760;29;20452;-25
2021/01/18 07:26:56;;;;;;;14.00;11.00;;;3.50;99.90;;;;;;4922998;29;20449;-26
2021/01/18 07:29:25;;;;;;;17.13;11.67;;;3.50;99.90;;;;;;4927459;29;20477;-25
2021/01/18 07:31:54;;;;;;;18.57;14.37;;;3.50;99.90;;;;;;4928409;29;21140;-25
2021/01/18 07:34:24;;;;;;;18.70;12.27;;;3.50;99.90;;;;;;4921211;29;20528;-26
2021/01/18 07:36:52;;;;;;;20.27;13.80;;;3.50;99.90;;;;;;4929428;29;20461;-26
2021/01/18 07:39:27;;;;;;;17.53;13.80;;;3.60;99.90;;;;;;4880090;29;20604;-26
2021/01/18 07:41:54;;;;;;;21.53;14.27;;;3.60;99.90;;;;;;4926342;29;20433;-26
2021/01/18 07:44:36;;;;;;;25.23;13.67;;;3.70;99.90;;;;;;4924638;29;20446;-26
2021/01/18 07:47:05;;;;;;;18.00;12.53;;;3.80;99.90;;;;;;4924342;29;20585;-26
2021/01/18 07:49:40;;;;;;;20.60;12.40;;;3.80;99.90;;;;;;4924747;29;20625;-26
2021/01/18 07:52:15;;;;;;;16.37;12.10;;;3.90;99.90;;;;;;4925856;29;20454;-26
2021/01/18 07:54:43;;;;;;;14.83;11.10;;;3.90;99.90;;;;;;4923913;29;20958;-26
2021/01/18 07:57:39;;;;;;;18.10;10.50;;;3.90;99.90;;;;;;4926416;29;20449;-25
2021/01/18 08:00:26;;;;;;;21.80;10.60;;;3.90;99.90;;;;;;4924172;29;20477;-26
2021/01/18 08:02:55;;;;;;;19.87;10.50;;;3.90;99.90;;;;;;4923630;28;20486;-26
2021/01/18 08:05:25;;;;;;;14.20;10.57;;;3.90;99.90;;;;;;4923658;29;20544;-26
2021/01/18 08:08:12;;;;;;;13.60;10.40;;;3.90;99.90;;;;;;4922976;28;20509;-26
2021/01/18 08:11:04;;;;;;;18.50;11.07;;;3.90;99.90;;;;;;4914536;29;20462;-26
2021/01/18 08:13:40;;;;;;;17.47;10.87;;;4.00;99.90;;;;;;4915118;29;20809;-26
2021/01/18 08:16:15;;;;;;;13.77;9.90;;;4.10;99.90;;;;;;4910556;29;20442;-26
2021/01/18 08:18:53;;;;;;;16.83;10.33;;;4.00;99.90;;;;;;4922292;29;21214;-26
2021/01/18 08:21:58;;;;;;;14.40;10.50;;;4.00;99.90;;;;;;4924240;28;20484;-27
2021/01/18 08:24:51;;;;;;;14.50;9.67;;;4.10;99.90;;;;;;4918183;29;20458;-26
2021/01/18 08:27:36;;;;;;;16.63;10.00;;;4.10;99.90;;;;;;4919865;28;20494;-26
2021/01/18 08:30:40;;;;;;;9.87;8.60;;;4.20;99.90;;;;;;4924676;29;20581;-26
2021/01/18 08:33:12;;;;;;;13.30;9.67;;;4.30;99.90;;;;;;4924108;29;20890;-26
2021/01/18 08:35:49;;;;;;;18.57;9.50;;;4.30;99.90;;;;;;4922973;29;21331;-26
2021/01/18 08:38:28;;;;;;;9.97;7.73;;;4.40;99.90;;;;;;4919165;29;20458;-26
2021/01/18 08:41:08;;;;;;;12.20;7.80;;;4.40;99.90;;;;;;4919825;29;20454;-26
2021/01/18 08:43:50;;;;;;;14.63;8.67;;;4.40;99.90;;;;;;4922386;29;20984;-26
2021/01/18 08:46:36;;;;;;;10.23;8.00;;;4.50;99.90;;;;;;4923494;29;20452;-26
2021/01/18 08:49:24;;;;;;;13.87;9.27;;;4.40;99.90;;;;;;4905545;29;20457;-26
2021/01/18 08:51:53;;;;;;;13.10;8.77;;;4.20;99.90;;;;;;4912900;29;20446;-26
2021/01/18 08:54:36;;;;;;;8.70;7.53;;;4.20;99.90;;;;;;4922083;29;20446;-26
2021/01/18 08:57:24;;;;;;;11.30;9.07;;;4.30;99.90;;;;;;4915303;29;20461;-26
2021/01/18 09:00:10;;;;;;;15.90;8.97;;;4.30;99.90;;;;;;4919040;29;20470;-26
2021/01/18 09:02:41;;;;;;;10.03;7.90;;;4.50;99.90;;;;;;4902681;29;20450;-26
2021/01/18 09:05:17;;;;;;;10.00;8.30;;;4.60;99.90;;;;;;4914982;29;20474;-26
2021/01/18 09:07:45;;;;;;;13.40;8.27;;;4.80;99.90;;;;;;4919151;29;20549;-26
2021/01/18 09:10:14;;;;;;;11.50;7.87;;;4.90;99.90;;;;;;4919764;28;20450;-26
2021/01/18 09:12:43;;;;;;;11.13;9.57;;;4.90;99.90;;;;;;4923726;28;20450;-26
2021/01/18 09:15:13;;;;;;;12.30;8.70;;;4.90;99.90;;;;;;4917958;28;20564;-26
2021/01/18 09:17:40;;;;;;;12.17;8.47;;;4.90;99.90;;;;;;4914168;28;20472;-27
2021/01/18 09:20:14;;;;;;;12.30;10.30;;;5.00;99.90;;;;;;4915095;28;20486;-26
2021/01/18 09:22:45;;;;;;;13.70;10.17;;;5.00;99.90;;;;;;4913405;29;20446;-26
2021/01/18 09:25:15;;;;;;;12.13;8.70;;;4.90;99.90;;;;;;4917643;29;20434;-26
2021/01/18 09:27:42;;;;;;;12.40;9.37;;;5.00;99.90;;;;;;4916446;29;20588;-26
2021/01/18 09:30:11;;;;;;;21.97;14.07;;;5.00;99.90;;;;;;4899670;28;20616;-26
2021/01/18 09:32:39;;;;;;;14.47;11.03;;;5.00;99.90;;;;;;4919113;29;20442;-26
2021/01/18 09:35:10;;;;;;;18.43;13.70;;;5.10;99.90;;;;;;4921690;28;20541;-26
2021/01/18 09:37:42;;;;;;;16.33;10.43;;;4.90;99.90;;;;;;4919951;29;20445;-27
2021/01/18 09:40:12;;;;;;;9.73;8.30;;;4.80;99.90;;;;;;4922984;29;20474;-26
2021/01/18 09:42:42;;;;;;;16.70;10.30;;;4.80;99.90;;;;;;4911509;29;20450;-26
2021/01/18 09:45:10;;;;;;;18.43;9.30;;;4.70;99.90;;;;;;4902343;28;20458;-26
2021/01/18 09:47:38;;;;;;;18.20;10.10;;;4.60;99.90;;;;;;4923645;29;20439;-26
2021/01/18 09:50:09;;;;;;;16.23;9.30;;;4.50;99.90;;;;;;4923515;29;20913;-26
2021/01/18 09:52:41;;;;;;;16.37;11.20;;;4.50;99.90;;;;;;4905899;29;20465;-26
2021/01/18 09:55:15;;;;;;;12.70;9.80;;;4.60;99.90;;;;;;4919951;29;20777;-26
2021/01/18 09:57:45;;;;;;;16.73;10.17;;;4.70;99.90;;;;;;4917603;29;20453;-26
2021/01/18 10:00:15;;;;;;;14.33;9.90;;;4.80;99.90;;;;;;4922643;29;20560;-26
2021/01/18 10:02:49;;;;;;;11.00;9.60;;;4.90;99.90;;;;;;4918735;29;20438;-26
2021/01/18 10:05:23;;;;;;;13.70;10.57;;;5.00;99.90;;;;;;4916398;29;20884;-26
2021/01/18 10:07:53;;;;;;;18.70;13.10;;;5.20;99.90;;;;;;4919645;29;20473;-27
2021/01/18 10:10:21;;;;;;;14.40;9.93;;;5.50;99.90;;;;;;4920998;29;20472;-27
2021/01/18 10:12:54;;;;;;;13.10;11.00;;;5.70;99.90;;;;;;4914640;29;20532;-25
2021/01/18 10:15:27;;;;;;;17.27;14.10;;;5.80;99.90;;;;;;4901891;29;20446;-25
2021/01/18 10:17:57;;;;;;;12.20;10.67;;;6.00;99.90;;;;;;4893818;29;20467;-26
2021/01/18 10:20:28;;;;;;;12.57;9.93;;;6.10;99.90;;;;;;4904006;29;20503;-24
2021/01/18 10:22:57;;;;;;;13.70;9.83;;;6.30;99.90;;;;;;4897463;29;20447;-25
2021/01/18 10:25:29;;;;;;;12.20;6.97;;;6.40;99.90;;;;;;4900125;29;20442;-25
2021/01/18 10:27:57;;;;;;;9.50;8.60;;;6.10;99.90;;;;;;4899621;29;20618;-26
2021/01/18 10:30:29;;;;;;;11.13;9.27;;;6.00;99.90;;;;;;4903195;29;20765;-25
2021/01/18 10:33:03;;;;;;;10.83;7.00;;;5.90;99.90;;;;;;4896600;29;20442;-25
2021/01/18 10:35:32;;;;;;;10.40;7.30;;;5.80;99.90;;;;;;4899926;29;20462;-25
2021/01/18 10:38:19;;;;;;;9.33;7.70;;;5.60;99.90;;;;;;4893016;29;21417;-27
2021/01/18 10:41:04;;;;;;;10.43;7.37;;;5.60;99.90;;;;;;4887407;29;20499;-26
2021/01/18 10:43:31;;;;;;;9.33;7.77;;;5.50;99.90;;;;;;4898383;29;20542;-27
2021/01/18 10:46:03;;;;;;;12.30;11.00;;;5.40;99.90;;;;;;4902828;29;20800;-26
2021/01/18 10:48:37;;;;;;;11.20;8.40;;;5.50;99.90;;;;;;4904270;29;20522;-24
2021/01/18 10:51:05;;;;;;;11.50;9.63;;;5.80;99.90;;;;;;4905513;29;20475;-24
2021/01/18 10:53:33;;;;;;;11.97;10.23;;;5.90;99.90;;;;;;4904890;29;20841;-24
2021/01/18 10:56:21;;;;;;;9.87;7.03;;;6.10;99.90;;;;;;4906302;29;20486;-25
2021/01/18 10:58:56;;;;;;;10.77;7.70;;;6.30;99.90;;;;;;4880358;29;20472;-25
2021/01/18 11:01:25;;;;;;;8.47;7.57;;;6.20;99.90;;;;;;4899023;29;20459;-25
2021/01/18 11:03:53;;;;;;;12.80;8.30;;;6.20;99.90;;;;;;4886233;29;20585;-25
2021/01/18 11:06:22;;;;;;;9.33;7.27;;;6.20;99.90;;;;;;4910947;29;20533;-25
2021/01/18 11:08:53;;;;;;;7.50;6.80;;;6.30;99.90;;;;;;4921541;29;20516;-25
2021/01/18 11:11:23;;;;;;;8.10;7.10;;;6.20;99.90;;;;;;4927134;29;20468;-25
2021/01/18 11:14:03;;;;;;;10.67;7.33;;;6.20;99.90;;;;;;4927565;29;20477;-25
2021/01/18 11:16:30;;;;;;;8.70;7.80;;;6.30;99.90;;;;;;4923973;29;20807;-25
2021/01/18 11:19:05;;;;;;;10.20;8.03;;;6.30;99.90;;;;;;4923682;29;20492;-25
2021/01/18 11:21:32;;;;;;;8.53;6.93;;;6.10;99.90;;;;;;4903956;29;20835;-25
2021/01/18 11:23:59;;;;;;;12.03;7.20;;;5.90;99.90;;;;;;4906547;29;20608;-25
2021/01/18 11:26:27;;;;;;;10.53;7.47;;;5.60;99.90;;;;;;4926703;29;20464;-25
2021/01/18 11:28:54;;;;;;;7.33;6.63;;;5.30;99.90;;;;;;4923762;29;20502;-25
2021/01/18 11:31:22;;;;;;;10.50;7.47;;;5.30;99.90;;;;;;4923178;29;20485;-25
2021/01/18 11:33:50;;;;;;;11.07;9.40;;;5.40;99.90;;;;;;4917172;29;20561;-25
2021/01/18 11:36:25;;;;;;;12.50;9.20;;;5.50;99.90;;;;;;4918590;29;20870;-25
2021/01/18 11:38:52;;;;;;;12.50;9.00;;;5.50;99.90;;;;;;4920190;29;20464;-25
2021/01/18 11:41:20;;;;;;;16.57;10.70;;;5.60;99.90;;;;;;4919520;29;20453;-25
2021/01/18 11:43:47;;;;;;;17.43;11.87;;;5.70;99.90;;;;;;4923994;29;20568;-25
2021/01/18 11:46:16;;;;;;;12.30;9.07;;;5.70;99.90;;;;;;4927092;29;20548;-25
2021/01/18 11:48:44;;;;;;;10.07;7.20;;;5.60;99.90;;;;;;4924464;29;20453;-25
2021/01/18 11:51:13;;;;;;;11.50;8.10;;;5.70;99.90;;;;;;4925570;29;20762;-25
2021/01/18 11:53:40;;;;;;;8.90;8.00;;;5.80;99.90;;;;;;4920617;29;20570;-25
2021/01/18 11:56:08;;;;;;;10.00;7.10;;;5.80;99.90;;;;;;4920474;28;20600;-25
2021/01/18 11:58:35;;;;;;;12.40;7.97;;;5.90;99.90;;;;;;4924499;29;20450;-25
2021/01/18 12:01:04;;;;;;;8.67;7.77;;;5.90;99.90;;;;;;4930714;29;20517;-25
2021/01/18 12:03:32;;;;;;;10.73;7.80;;;5.70;99.90;;;;;;4926835;29;20449;-25
2021/01/18 12:05:59;;;;;;;10.03;9.00;;;5.70;99.90;;;;;;4924572;29;20442;-25
2021/01/18 12:08:29;;;;;;;9.37;7.63;;;5.70;99.90;;;;;;4928820;28;20485;-25
2021/01/18 12:10:57;;;;;;;11.07;8.70;;;5.70;99.90;;;;;;4925341;28;20710;-25
2021/01/18 12:13:24;;;;;;;10.17;8.30;;;5.50;99.90;;;;;;4934964;28;20618;-26
2021/01/18 12:15:50;;;;;;;9.53;8.33;;;5.50;99.90;;;;;;4937392;28;20445;-25
2021/01/18 12:18:17;;;;;;;11.30;9.20;;;5.50;99.90;;;;;;4938018;28;20671;-25
2021/01/18 12:20:44;;;;;;;9.80;8.00;;;5.50;99.90;;;;;;4937104;28;20624;-25
2021/01/18 12:23:10;;;;;;;14.20;9.60;;;5.60;99.90;;;;;;4935456;28;20738;-25
2021/01/18 12:25:37;;;;;;;14.90;8.83;;;5.60;99.90;;;;;;4938668;28;20457;-25
2021/01/18 12:28:05;;;;;;;10.83;9.20;;;5.70;99.90;;;;;;4935864;28;20677;-26
2021/01/18 12:30:32;;;;;;;8.90;7.50;;;5.80;99.90;;;;;;4936638;28;21239;-27
2021/01/18 12:32:59;;;;;;;10.50;8.13;;;5.80;99.90;;;;;;4934745;28;21004;-27
2021/01/18 12:35:26;;;;;;;11.67;8.70;;;5.70;99.90;;;;;;4933471;28;20637;-27
2021/01/18 12:37:53;;;;;;;9.90;8.10;;;5.70;99.90;;;;;;4931614;28;21057;-27
2021/01/18 12:40:19;;;;;;;13.80;9.67;;;5.50;99.90;;;;;;4915976;28;20655;-26
2021/01/18 12:42:48;;;;;;;15.00;9.53;;;5.50;99.90;;;;;;4896394;29;20589;-26
2021/01/18 12:45:17;;;;;;;11.60;8.07;;;5.40;99.90;;;;;;4901920;29;20497;-26
2021/01/18 12:47:45;;;;;;;11.53;8.33;;;5.40;99.90;;;;;;4917505;29;20693;-27
2021/01/18 12:50:12;;;;;;;13.03;8.50;;;5.40;99.90;;;;;;4908777;29;20501;-27
2021/01/18 12:52:42;;;;;;;10.60;8.77;;;5.40;99.90;;;;;;4906884;29;20667;-27
2021/01/18 12:55:10;;;;;;;13.13;9.80;;;5.50;99.90;;;;;;4911197;28;20498;-27
2021/01/18 12:57:37;;;;;;;13.83;8.10;;;5.60;99.90;;;;;;4914345;29;20446;-26
2021/01/18 13:00:06;;;;;;;15.10;8.27;;;5.60;99.90;;;;;;4914957;29;20480;-27
2021/01/18 13:02:38;;;;;;;9.90;8.90;;;5.70;99.90;;;;;;4911545;29;20571;-26
2021/01/18 13:05:06;;;;;;;11.23;8.93;;;5.80;99.90;;;;;;4921517;29;20833;-27
2021/01/18 13:07:32;;;;;;;12.03;8.33;;;5.80;99.90;;;;;;4911928;29;20758;-26
2021/01/18 13:10:04;;;;;;;13.67;9.37;;;5.80;99.90;;;;;;4905767;28;20718;-26
2021/01/18 13:12:32;;;;;;;14.33;10.10;;;5.80;99.90;;;;;;4914277;29;20542;-26